ADDS METAR Data INFO
IDs: Format: Raw Decoded Include TAF

Data at: 0335 UTC 19 Jul 2018

KMDQ 190315Z AUTO 00000KT 10SM CLR 23/21 A2998 RMK A02 T02280215
KMDQ 190255Z AUTO 00000KT 10SM CLR 23/22 A2998 RMK A02 T02300215
KMDQ 190235Z AUTO 00000KT 10SM CLR 24/22 A2997 RMK A02 T02380217
KMDQ 190215Z AUTO 00000KT 10SM CLR 24/22 A2997 RMK A02 T02440216
KMDQ 190155Z AUTO 00000KT 10SM CLR 24/22 A2995 RMK A02
KMDQ 190135Z AUTO 00000KT 10SM CLR 25/22 A2995 RMK A02 T02470220
KMDQ 190115Z AUTO 00000KT 10SM CLR 26/22 A2994 RMK A02 LTG DSNT SW T02580220
KMDQ 190055Z AUTO 00000KT 10SM CLR 26/22 A2994 RMK A02 T02600219
KMDQ 190035Z AUTO 36004KT 10SM CLR 27/22 A2994 RMK A02 T02690218
KMDQ 190015Z AUTO 01003KT 10SM CLR 28/21 A2994 RMK A02 T02830212
KMDQ 182355Z AUTO 02004KT 10SM CLR 29/21 A2994 RMK A02 T02910212 10330 20290 403300216
KMDQ 182335Z AUTO 02006KT 10SM CLR 30/21 A2994 RMK A02 T03000215
KMDQ 182315Z AUTO 03004KT 10SM CLR 30/22 A2994 RMK A02 T02960220
KMDQ 182255Z AUTO 04004KT 10SM CLR 30/22 A2995 RMK A02 T02980222
KMDQ 182235Z AUTO 03005KT 10SM CLR 30/22 A2995 RMK A02 T03040217
KMDQ 182215Z AUTO 02004KT 10SM CLR 31/22 A2995 RMK A02 T03090224
KMDQ 182155Z AUTO 01007KT 10SM SCT048 SCT055 31/22 A2994 RMK A02 T03120217
KMDQ 182135Z AUTO 02005KT 10SM SCT049 32/21 A2994 RMK A02 T03170208
KMDQ 182115Z AUTO 01006KT 10SM SCT049 32/22 A2994 RMK A02 T03240215
KMDQ 182055Z AUTO 36007KT 10SM SCT050 32/22 A2994 RMK A02 T03250218
KMDQ 182035Z AUTO 01009KT 10SM SCT050 33/21 A2995 RMK A02 T03260213
KMDQ 182015Z AUTO 03006KT 10SM CLR 33/21 A2996 RMK A02 T03290206
KMDQ 181955Z AUTO 01005KT 10SM CLR 32/20 A2997 RMK A02 T03250203
KMDQ 181935Z AUTO 00000KT 10SM CLR 32/21 A2997 RMK A02 T03230210
KMDQ 181915Z AUTO 34004KT 10SM CLR 32/21 A2998 RMK A02 T03230212
KMDQ 181855Z AUTO 00000KT 10SM SCT035 SCT047 31/22 A2999 RMK A02 T03080225
KMDQ 181835Z AUTO 26004KT 10SM BKN037 31/23 A2999 RMK A02 T03060226
KMDQ 181815Z AUTO 32005KT 10SM CLR 31/24 A2999 RMK A02 T03100236
KMDQ 181755Z AUTO 34008KT 320V070 10SM CLR 31/23 A2999 RMK A02 T03120228 10315 20220 60001
KMDQ 181735Z AUTO 34005KT 10SM CLR 31/23 A3000 RMK A02 T03090229
KMDQ 181715Z AUTO 10003KT 10SM CLR 30/22 A3000 RMK A02 T03040220
KMDQ 181655Z AUTO 00000KT 10SM CLR 30/22 A3001 RMK A02 T03030224
KMDQ 181635Z AUTO 00000KT 10SM CLR 30/23 A3002 RMK A02 T02970230
KMDQ 181615Z AUTO 08003KT 7SM CLR 30/23 A3002 RMK A02 T02960235
KMDQ 181555Z AUTO 06005KT 10SM CLR 28/23 A3003 RMK A02 T02850232
KMDQ 181535Z AUTO 00000KT 10SM CLR 28/23 A3003 RMK A02 T02820229
KMDQ 181515Z AUTO 00000KT 10SM CLR 28/23 A3002 RMK A02 T02770234
KMDQ 181455Z AUTO 12003KT 10SM CLR 27/23 A3002 RMK A02 T02710233 60001
KMDQ 181435Z AUTO 09003KT 10SM CLR 26/23 A3003 RMK A02 T02630230
KMDQ 181415Z AUTO 06003KT 10SM SCT005 25/23 A3003 RMK A02 T02550232
KMDQ 181355Z AUTO 07004KT 7SM BKN003 24/23 A3004 RMK A02 P0001 T02430227
KMDQ 181335Z AUTO 00000KT 5SM BR OVC003 24/22 A3004 RMK A02 P0001 T02350224
KMDQ 181315Z AUTO 00000KT 7SM BR OVC003 23/22 A3004 RMK A02 P0001 T02290220
KMDQ 181255Z AUTO 00000KT 5SM BR OVC003 22/22 A3003 RMK A02 T02250219
KMDQ 181235Z AUTO 00000KT 5SM BR BKN003 22/22 A3003 RMK A02 T02240218
KMDQ 181215Z AUTO 00000KT 7SM BR SCT004 22/22 A3003 RMK A02 T02230217
KMDQ 181155Z AUTO 00000KT 5SM BR CLR 22/22 A3002 RMK A02 T02210216 10234 20216 70001
KMDQ 181135Z AUTO 00000KT 5SM BR CLR 22/22 A3002 RMK A02 T02200216
KMDQ 181115Z AUTO 00000KT 5SM BR CLR 22/22 A3001 RMK A02 T02190215
KMDQ 181055Z AUTO 00000KT 5SM BR CLR 22/21 A3001 RMK A02 T02170213
KMDQ 181035Z AUTO 35003KT 4SM BR CLR 22/21 A3000 RMK A02 T02170213
KMDQ 181015Z AUTO 00000KT 7SM CLR 22/22 A3000 RMK A02 T02220217
KMDQ 180955Z AUTO 00000KT 7SM CLR 22/22 A2999 RMK A02 T02230218
KMDQ 180935Z AUTO 00000KT 10SM CLR 22/22 A2999 RMK A02 T02250218
KMDQ 180915Z AUTO 00000KT 10SM CLR 23/22 A2998 RMK A02 T02270219
KMDQ 180855Z AUTO 00000KT 7SM CLR 23/22 A2998 RMK A02 T02260221
KMDQ 180835Z AUTO 00000KT 10SM CLR 23/22 A2998 RMK A02 T02260220
KMDQ 180815Z AUTO 35003KT 10SM CLR 23/22 A2998 RMK A02 T02270221
KMDQ 180755Z AUTO 02004KT 10SM CLR 23/22 A2998 RMK A02 T02290223
KMDQ 180735Z AUTO 35006KT 5SM BR CLR 22/22 A2997 RMK A02 T02240220
KMDQ 180715Z AUTO 00000KT 5SM BR CLR 23/22 A2998 RMK A02 T02270223
KMDQ 180655Z AUTO 00000KT 7SM CLR 23/22 A2998 RMK A02 T02290224
KMDQ 180635Z AUTO 00000KT 5SM BR CLR 23/23 A2999 RMK A02 T02310227
KMDQ 180615Z AUTO 01003KT 7SM SCT043 23/23 A3000 RMK A02 T02320228
KMDQ 180555Z AUTO 00000KT 10SM SCT041 23/23 A3001 RMK A02 T02350229 10267 20234
KMDQ 180535Z AUTO 00000KT 10SM CLR 24/23 A3001 RMK A02 T02370230
KMDQ 180515Z AUTO 00000KT 10SM CLR 24/23 A3001 RMK A02 T02380231
KMDQ 180455Z AUTO 00000KT 10SM CLR 24/23 A3001 RMK A02 T02390232
KMDQ 180435Z AUTO 07003KT 10SM CLR 24/23 A3002 RMK A02 T02410232
KMDQ 180415Z AUTO 07003KT 10SM SCT049 SCT120 24/23 A3002 RMK A02 T02420233
KMDQ 180355Z AUTO 00000KT 10SM SCT049 SCT120 25/23 A3002 RMK A02 T02480233
KMDQ 180335Z AUTO 00000KT 10SM SCT120 24/23 A3003 RMK A02 T02440234
KMDQ 180315Z AUTO 00000KT 10SM CLR 24/23 A3002 RMK A02 T02430234
KMDQ 180255Z AUTO 10003KT 10SM CLR 24/23 A3001 RMK A02 T02420233
KMDQ 180235Z AUTO 11003KT 10SM CLR 24/23 A3001 RMK A02 T02440233
KMDQ 180215Z AUTO 00000KT 10SM SCT120 25/23 A3001 RMK A02 T02490234
KMDQ 180155Z AUTO 00000KT 10SM BKN120 25/24 A3001 RMK A02 T02510235
KMDQ 180135Z AUTO 00000KT 10SM SCT045 OVC120 25/24 A3001 RMK A02 LTG DSNT SW T02550235
KMDQ 180115Z AUTO 00000KT 10SM SCT045 SCT060 BKN120 26/23 A3001 RMK A02 LTG DSNT W T02560233
KMDQ 180055Z AUTO 26003KT 10SM BKN047 BKN060 BKN120 25/23 A3000 RMK A02 LTG DSNT SE AND W T02550231
KMDQ 180035Z AUTO 20005KT 10SM SCT047 BKN050 BKN060 26/23 A3000 RMK A02 T02590230
KMDQ 180015Z AUTO 21004KT 10SM CLR 26/23 A2999 RMK A02 LTG DSNT W T02640232
KMDQ 172355Z AUTO 20004KT 10SM SCT100 27/23 A2999 RMK A02 LTG DSNT SW T02660230 10319 20265 403190217
KMDQ 172335Z AUTO 17005KT 10SM SCT075 BKN100 27/23 A3000 RMK A02 LTG DSNT E T02700229
KMDQ 172315Z AUTO 21007KT 10SM SCT043 SCT050 BKN075 27/24 A3000 RMK A02 LTG DSNT E AND SE
KMDQ 172255Z AUTO 27004KT 10SM VCTS SCT028 BKN041 OVC050 27/23 A3000 RMK A02 LTG DSNT E AND W T02680233
KMDQ 172235Z AUTO 29009KT 250V330 10SM SCT030 SCT037 BKN120 28/23 A2999 RMK A02 LTG DSNT E AND W T02760226
KMDQ 172215Z AUTO 28009KT 250V330 10SM VCTS SCT080 SCT110 28/22 A2998 RMK A02 LTG DSNT ALQDS T02830220
KMDQ 172155Z AUTO 26008KT 10SM SCT028 SCT045 SCT095 29/23 A2997 RMK A02 LTG DSNT ALQDS T02880227
KMDQ 172135Z AUTO 28008KT 260V320 10SM -RA SCT025 SCT040 BKN060 29/25 A2995 RMK A02 LTG DSNT SW THRU NE T02930249
KMDQ 172115Z AUTO 27007KT 10SM SCT080 30/24 A2997 RMK A02 LTG DSNT NE E AND SW T03040243
KMDQ 172055Z AUTO 27008KT 10SM SCT038 SCT049 SCT090 31/24 A2997 RMK A02 LTG DSNT E T03070238
KMDQ 172035Z AUTO 28007KT 10SM SCT038 32/24 A2997 RMK A02 LTG DSNT NE AND SW T03170239
KMDQ 172015Z AUTO 27006KT 10SM SCT038 SCT060 SCT110 31/23 A2997 RMK A02 LTG DSNT NE S AND SW T03130233
KMDQ 171955Z AUTO 27006KT 10SM SCT037 SCT060 BKN110 32/23 A2998 RMK A02 LTG DSNT W T03150230
KMDQ 171935Z AUTO 26006KT 10SM SCT037 SCT055 31/24 A2998 RMK A02 LTG DSNT E AND W T03120236
KMDQ 171915Z AUTO 27007KT 10SM SCT031 SCT055 32/24 A2999 RMK A02 LTG DSNT E T03150245
KMDQ 171855Z AUTO 30007KT 10SM SCT028 31/24 A3000 RMK A02 T03100240
KMDQ 171835Z AUTO 25007KT 210V280 10SM SCT026 SCT100 31/25 A3000 RMK A02 LTG DSNT SE T03110248
KMDQ 171815Z AUTO 28008KT 10SM CLR 30/25 A3001 RMK A02 T03030252
KMDQ 171755Z AUTO 26005KT 10SM SCT014 SCT110 29/25 A3002 RMK A02 T02930253 10298 20237 60001
KMDQ 171735Z AUTO 29007KT 10SM SCT012 SCT120 29/25 A3003 RMK A02 LTG DSNT SE T02860251
KMDQ 171715Z AUTO 29007KT 10SM SCT012 BKN120 28/25 A3004 RMK A02 T02830251
KMDQ 171655Z AUTO 33008KT 10SM BKN012 BKN017 BKN120 28/25 A3004 RMK A02 T02840255
KMDQ 171635Z AUTO 35008KT 10SM BKN012 SCT017 29/26 A3004 RMK A02 T02880257
KMDQ 171615Z AUTO 34007KT 7SM HZ SCT014 BKN024 29/26 A3003 RMK A02 T02930258
KMDQ 171555Z AUTO 35010KT 10SM BKN016 BKN025 BKN120 28/25 A3003 RMK A02 T02850253